Time,TemperatureF,DewpointF,PressureIn,WindDirection,WindDirectionDegrees,WindSpeedMPH,WindSpeedGustMPH,Humidity,HourlyPrecipIn,Conditions,Clouds,dailyrainin,SoftwareType,DateUTC
2013-04-01 00:00:00,45.1,44.1,29.66,NW,310,0.0,0.0,96,13.76,,,55.96,meteohub,2013-04-01 04:00:00,
2013-04-01 00:01:00,45.1,44.1,29.66,NW,310,0.0,0.0,96,13.76,,,55.96,meteohub,2013-04-01 04:01:00,
2013-04-01 00:03:00,45.1,44.1,29.66,NW,310,0.0,0.0,96,13.76,,,55.96,meteohub,2013-04-01 04:03:00,
2013-04-01 00:08:00,45.1,44.4,29.65,NW,310,0.0,0.0,97,13.24,,,56.68,meteohub,2013-04-01 04:08:00,
2013-04-01 00:13:00,45.1,44.1,29.64,NW,310,0.0,0.0,96,13.64,,,58.16,meteohub,2013-04-01 04:13:00,
2013-04-01 00:18:00,45.1,44.1,29.63,NW,310,0.0,0.0,96,13.92,,,59.52,meteohub,2013-04-01 04:18:00,
2013-04-01 00:23:00,45.1,44.4,29.64,NW,310,0.0,0.0,97,13.40,,,60.28,meteohub,2013-04-01 04:23:00,
2013-04-01 00:28:00,45.1,44.4,29.64,NW,310,0.0,0.0,97,13.64,,,61.72,meteohub,2013-04-01 04:28:00,
2013-04-01 00:33:00,45.1,44.4,29.64,NW,310,0.0,0.0,97,13.16,,,62.44,meteohub,2013-04-01 04:33:00,
2013-04-01 00:38:00,45.1,44.4,29.64,NW,310,0.0,0.0,97,13.48,,,63.88,meteohub,2013-04-01 04:38:00,
2013-04-01 00:43:00,45.1,44.4,29.63,NW,310,0.0,0.0,97,13.80,,,65.40,meteohub,2013-04-01 04:43:00,
2013-04-01 00:48:00,45.1,44.4,29.63,NW,310,0.0,0.0,97,13.44,,,66.16,meteohub,2013-04-01 04:48:00,
2013-04-01 00:53:00,45.1,44.4,29.63,NW,310,0.0,0.0,97,13.64,,,67.48,meteohub,2013-04-01 04:53:00,
2013-04-01 00:58:00,45.1,44.4,29.63,NW,310,0.0,0.0,97,13.84,,,68.92,meteohub,2013-04-01 04:58:00,
2013-04-01 01:03:00,45.1,44.4,29.63,NW,310,0.0,0.0,97,13.56,,,69.76,meteohub,2013-04-01 05:03:00,
2013-04-01 01:08:00,45.1,44.4,29.63,NW,310,0.0,0.0,97,13.80,,,71.20,meteohub,2013-04-01 05:08:00,
2013-04-01 01:13:00,45.1,44.4,29.63,NW,310,0.0,0.0,97,13.28,,,71.92,meteohub,2013-04-01 05:13:00,
2013-04-01 01:19:00,45.1,44.4,29.63,NW,310,0.0,0.0,97,13.64,,,73.40,meteohub,2013-04-01 05:19:00,
2013-04-01 01:24:00,45.1,44.4,29.63,NW,310,0.0,0.0,97,13.96,,,74.84,meteohub,2013-04-01 05:24:00,
2013-04-01 01:29:00,45.1,44.4,29.62,NW,310,0.0,0.0,97,13.48,,,75.56,meteohub,2013-04-01 05:29:00,
2013-04-01 01:34:00,45.1,44.4,29.62,NW,310,0.0,0.0,97,13.64,,,76.92,meteohub,2013-04-01 05:34:00,
2013-04-01 01:39:00,45.1,44.4,29.62,NW,310,0.0,0.0,97,13.84,,,78.24,meteohub,2013-04-01 05:39:00,
2013-04-01 01:44:00,45.1,44.4,29.63,NW,310,0.0,0.0,97,13.40,,,79.04,meteohub,2013-04-01 05:44:00,
2013-04-01 01:49:00,45.1,44.4,29.63,NW,310,0.0,0.0,97,13.60,,,80.48,meteohub,2013-04-01 05:49:00,
2013-04-01 01:54:00,45.1,44.4,29.63,NW,310,0.0,0.0,97,14.08,,,81.92,meteohub,2013-04-01 05:54:00,
2013-04-01 01:59:00,45.1,44.4,29.63,NW,310,0.0,0.0,97,13.56,,,82.60,meteohub,2013-04-01 05:59:00,
2013-04-01 02:04:00,45.0,44.2,29.64,NW,310,0.0,0.0,97,13.80,,,84.04,meteohub,2013-04-01 06:04:00,
2013-04-01 02:10:00,44.8,44.1,29.64,NW,310,0.0,0.0,97,13.56,,,86.24,meteohub,2013-04-01 06:10:00,
2013-04-01 02:15:00,44.6,43.9,29.64,NW,310,0.0,0.0,97,13.12,,,87.00,meteohub,2013-04-01 06:15:00,
2013-04-01 02:20:00,44.4,43.7,29.64,NW,310,0.0,0.0,97,13.64,,,88.60,meteohub,2013-04-01 06:20:00,
2013-04-01 02:25:00,44.2,43.5,29.64,NW,310,0.0,0.0,97,14.04,,,90.08,meteohub,2013-04-01 06:25:00,
2013-04-01 02:30:00,44.2,43.5,29.64,NW,310,0.0,0.0,97,13.44,,,90.72,meteohub,2013-04-01 06:30:00,
2013-04-01 02:35:00,44.2,43.5,29.64,NW,310,0.0,0.0,97,13.88,,,92.28,meteohub,2013-04-01 06:35:00,
2013-04-01 02:41:00,44.1,43.3,29.64,NW,310,0.0,0.0,97,13.36,,,93.00,meteohub,2013-04-01 06:41:00,
2013-04-01 02:46:00,44.1,43.3,29.64,NW,310,0.0,0.0,97,13.96,,,94.44,meteohub,2013-04-01 06:46:00,
2013-04-01 02:51:00,44.1,43.3,29.64,NW,310,0.0,0.0,97,13.80,,,95.84,meteohub,2013-04-01 06:51:00,
2013-04-01 02:56:00,44.1,43.3,29.64,NW,310,0.0,0.0,97,13.36,,,96.56,meteohub,2013-04-01 06:56:00,
2013-04-01 03:01:00,44.1,43.3,29.65,NW,310,0.0,0.0,97,13.80,,,98.08,meteohub,2013-04-01 07:01:00,
2013-04-01 03:06:00,44.1,43.3,29.65,NW,310,0.0,0.0,97,13.44,,,98.84,meteohub,2013-04-01 07:06:00,
2013-04-01 03:12:00,44.1,43.3,29.65,NW,310,0.0,0.0,97,13.64,,,99.99,meteohub,2013-04-01 07:12:00,
2013-04-01 03:17:00,44.2,43.5,29.66,NW,310,0.0,0.0,97,13.92,,,99.99,meteohub,2013-04-01 07:17:00,
2013-04-01 03:22:00,44.1,43.3,29.66,NW,310,0.0,0.0,97,13.28,,,99.99,meteohub,2013-04-01 07:22:00,
2013-04-01 03:27:00,44.1,43.3,29.67,NW,310,0.0,0.0,97,13.60,,,99.99,meteohub,2013-04-01 07:27:00,
2013-04-01 03:32:00,44.2,43.5,29.67,NW,310,0.0,0.0,97,13.84,,,99.99,meteohub,2013-04-01 07:32:00,
2013-04-01 03:37:00,44.2,43.5,29.67,NW,310,0.0,0.0,97,13.48,,,99.99,meteohub,2013-04-01 07:37:00,
2013-04-01 03:42:00,44.2,43.5,29.67,NW,310,0.0,0.0,97,13.84,,,99.99,meteohub,2013-04-01 07:42:00,
2013-04-01 03:47:00,44.1,43.3,29.66,NW,310,0.0,0.0,97,13.92,,,99.99,meteohub,2013-04-01 07:47:00,
2013-04-01 03:53:00,44.1,43.3,29.66,NW,310,0.0,0.0,97,13.56,,,99.99,meteohub,2013-04-01 07:53:00,
2013-04-01 03:58:00,43.9,43.2,29.67,NW,310,0.0,0.0,97,13.76,,,99.99,meteohub,2013-04-01 07:58:00,
2013-04-01 04:03:00,43.9,43.2,29.67,NW,310,0.0,0.0,97,13.36,,,99.99,meteohub,2013-04-01 08:03:00,
2013-04-01 04:08:00,43.7,43.0,29.67,NW,310,0.0,0.0,97,13.60,,,99.99,meteohub,2013-04-01 08:08:00,
2013-04-01 04:13:00,43.5,42.8,29.67,NW,310,0.0,0.0,97,13.80,,,99.99,meteohub,2013-04-01 08:13:00,
2013-04-01 04:18:00,43.5,42.8,29.67,NW,310,0.0,0.0,97,13.48,,,99.99,meteohub,2013-04-01 08:18:00,
2013-04-01 04:23:00,43.5,42.8,29.68,NW,310,0.0,0.0,97,13.72,,,99.99,meteohub,2013-04-01 08:23:00,
2013-04-01 04:28:00,43.5,42.8,29.67,NW,310,0.0,0.0,97,13.24,,,99.99,meteohub,2013-04-01 08:28:00,
2013-04-01 04:33:00,43.5,42.8,29.67,NW,310,0.0,0.0,97,13.56,,,99.99,meteohub,2013-04-01 08:33:00,
2013-04-01 04:38:00,43.5,42.8,29.68,NW,310,0.0,0.0,97,13.84,,,99.99,meteohub,2013-04-01 08:38:00,
2013-04-01 04:43:00,43.5,42.8,29.68,NW,310,0.0,0.0,97,13.40,,,99.99,meteohub,2013-04-01 08:43:00,
2013-04-01 04:49:00,43.5,42.8,29.68,NW,310,0.0,0.0,97,13.60,,,99.99,meteohub,2013-04-01 08:49:00,
2013-04-01 04:54:00,43.5,42.8,29.68,NW,310,0.0,0.0,97,13.84,,,99.99,meteohub,2013-04-01 08:54:00,
2013-04-01 04:59:00,43.5,42.8,29.68,NW,310,0.0,0.0,97,13.48,,,99.99,meteohub,2013-04-01 08:59:00,
2013-04-01 05:04:00,43.5,42.8,29.68,NW,310,0.0,0.0,97,13.76,,,99.99,meteohub,2013-04-01 09:04:00,
2013-04-01 05:09:00,43.5,42.4,29.68,NW,310,0.0,0.0,96,13.36,,,99.99,meteohub,2013-04-01 09:09:00,
2013-04-01 05:14:00,43.3,42.3,29.68,NW,310,0.0,0.0,96,13.52,,,99.99,meteohub,2013-04-01 09:14:00,
2013-04-01 05:19:00,43.2,42.1,29.68,NW,310,0.0,0.0,96,13.88,,,99.99,meteohub,2013-04-01 09:19:00,
2013-04-01 05:24:00,43.0,41.9,29.68,NW,310,0.0,0.0,96,13.16,,,99.99,meteohub,2013-04-01 09:24:00,
2013-04-01 05:29:00,43.0,41.9,29.68,NW,310,0.0,0.0,96,13.84,,,99.99,meteohub,2013-04-01 09:29:00,
2013-04-01 05:34:00,42.8,41.7,29.68,NW,310,0.0,0.0,96,13.44,,,99.99,meteohub,2013-04-01 09:34:00,
2013-04-01 05:39:00,42.6,41.5,29.68,NW,310,0.0,0.0,96,13.80,,,99.99,meteohub,2013-04-01 09:39:00,
2013-04-01 05:44:00,42.4,41.4,29.68,NW,310,0.0,0.0,96,13.28,,,99.99,meteohub,2013-04-01 09:44:00,
2013-04-01 05:50:00,42.4,41.4,29.68,NW,310,0.0,0.0,96,13.56,,,99.99,meteohub,2013-04-01 09:50:00,
2013-04-01 05:55:00,42.3,41.2,29.68,NW,310,0.0,0.0,96,13.56,,,99.99,meteohub,2013-04-01 09:55:00,
2013-04-01 06:00:00,42.3,41.2,29.68,NW,310,0.0,0.0,96,13.80,,,99.99,meteohub,2013-04-01 10:00:00,
2013-04-01 06:05:00,42.3,41.5,29.68,NW,310,0.0,0.0,97,13.40,,,99.99,meteohub,2013-04-01 10:05:00,
2013-04-01 06:10:00,42.3,41.5,29.68,NW,310,0.0,0.0,97,13.56,,,99.99,meteohub,2013-04-01 10:10:00,
2013-04-01 06:15:00,42.3,41.2,29.68,NW,310,0.0,0.0,96,13.76,,,99.99,meteohub,2013-04-01 10:15:00,
2013-04-01 06:20:00,42.3,41.2,29.68,NW,310,0.0,0.0,96,13.48,,,99.99,meteohub,2013-04-01 10:20:00,
2013-04-01 06:25:00,42.1,41.0,29.68,NW,310,0.0,0.0,96,13.68,,,99.99,meteohub,2013-04-01 10:25:00,
2013-04-01 06:31:00,41.7,40.6,29.69,NW,310,0.0,0.0,96,13.32,,,99.99,meteohub,2013-04-01 10:31:00,
2013-04-01 06:36:00,41.5,40.5,29.69,NW,310,0.0,0.0,96,13.60,,,99.99,meteohub,2013-04-01 10:36:00,
2013-04-01 06:41:00,41.4,40.3,29.69,NW,310,0.0,0.0,96,13.92,,,99.99,meteohub,2013-04-01 10:41:00,
2013-04-01 06:46:00,41.0,39.9,29.70,NW,310,0.0,0.0,96,13.44,,,99.99,meteohub,2013-04-01 10:46:00,
2013-04-01 06:52:00,40.6,39.6,29.70,NW,310,0.0,0.0,96,13.68,,,99.99,meteohub,2013-04-01 10:52:00,
2013-04-01 06:57:00,40.6,39.6,29.70,NW,310,0.0,0.0,96,13.32,,,99.99,meteohub,2013-04-01 10:57:00,
2013-04-01 07:02:00,40.6,39.6,29.70,NW,310,0.0,0.0,96,13.60,,,99.99,meteohub,2013-04-01 11:02:00,
2013-04-01 07:07:00,40.5,39.4,29.70,NW,310,0.0,0.0,96,13.80,,,99.99,meteohub,2013-04-01 11:07:00,
2013-04-01 07:12:00,40.6,39.9,29.70,NW,310,0.0,0.0,97,13.24,,,99.99,meteohub,2013-04-01 11:12:00,
2013-04-01 07:17:00,40.8,40.1,29.70,NW,310,0.0,0.0,97,13.52,,,99.99,meteohub,2013-04-01 11:17:00,
2013-04-01 07:22:00,41.0,40.3,29.70,NW,310,0.0,0.0,97,12.32,,,99.99,meteohub,2013-04-01 11:22:00,
2013-04-01 07:27:00,41.4,40.6,29.69,NW,310,0.0,0.0,97,13.44,,,99.99,meteohub,2013-04-01 11:27:00,
2013-04-01 07:32:00,41.5,41.0,29.69,NW,310,0.0,0.0,98,13.80,,,99.99,meteohub,2013-04-01 11:32:00,
2013-04-01 07:37:00,41.9,41.2,29.69,NW,310,0.0,0.0,97,13.16,,,99.99,meteohub,2013-04-01 11:37:00,
2013-04-01 07:42:00,42.3,41.7,29.69,NW,310,0.0,0.0,98,13.52,,,99.99,meteohub,2013-04-01 11:42:00,
2013-04-01 07:48:00,42.4,41.9,29.69,NW,310,0.0,0.0,98,13.88,,,99.99,meteohub,2013-04-01 11:48:00,
2013-04-01 07:53:00,43.2,42.6,29.69,NW,310,0.0,0.0,98,13.36,,,99.99,meteohub,2013-04-01 11:53:00,
2013-04-01 07:58:00,43.5,43.0,29.68,NW,310,0.0,0.0,98,13.76,,,99.99,meteohub,2013-04-01 11:58:00,
2013-04-01 08:03:00,44.2,43.7,29.68,NW,310,0.0,0.0,98,13.12,,,99.99,meteohub,2013-04-01 12:03:00,
2013-04-01 08:08:00,45.0,44.2,29.68,NW,310,0.0,0.0,97,13.32,,,99.99,meteohub,2013-04-01 12:08:00,
2013-04-01 08:13:00,45.3,44.2,29.68,NW,310,0.0,0.0,96,13.84,,,99.99,meteohub,2013-04-01 12:13:00,
2013-04-01 08:18:00,46.0,45.0,29.68,NW,310,0.0,0.0,96,13.44,,,99.99,meteohub,2013-04-01 12:18:00,
2013-04-01 08:23:00,46.4,44.8,29.68,NW,310,0.0,0.0,94,13.80,,,99.99,meteohub,2013-04-01 12:23:00,
2013-04-01 08:28:00,46.9,45.5,29.68,NW,310,0.0,0.0,95,13.28,,,99.99,meteohub,2013-04-01 12:28:00,
2013-04-01 08:33:00,47.7,46.0,29.68,NW,310,0.0,0.0,94,13.68,,,99.99,meteohub,2013-04-01 12:33:00,
2013-04-01 08:38:00,47.8,45.3,29.69,NW,310,0.0,0.0,91,12.84,,,99.99,meteohub,2013-04-01 12:38:00,
2013-04-01 08:44:00,48.0,45.9,29.69,NW,310,0.0,0.0,92,12.36,,,99.99,meteohub,2013-04-01 12:44:00,
2013-04-01 08:49:00,48.0,45.1,29.69,NW,310,0.0,0.0,90,12.64,,,99.99,meteohub,2013-04-01 12:49:00,
2013-04-01 08:54:00,48.4,46.2,29.69,NW,310,0.0,0.0,92,12.96,,,99.99,meteohub,2013-04-01 12:54:00,
2013-04-01 08:59:00,48.7,46.6,29.69,NW,310,0.0,0.0,92,12.40,,,99.99,meteohub,2013-04-01 12:59:00,
2013-04-01 09:04:00,48.9,46.0,29.69,NW,310,0.0,0.0,90,12.68,,,99.99,meteohub,2013-04-01 13:04:00,
2013-04-01 09:09:00,48.9,45.9,29.69,NW,310,0.0,0.0,89,13.04,,,99.99,meteohub,2013-04-01 13:09:00,
2013-04-01 09:14:00,48.7,45.3,29.70,NW,310,0.0,0.0,88,12.44,,,99.99,meteohub,2013-04-01 13:14:00,
2013-04-01 09:19:00,48.7,45.9,29.69,NW,310,0.0,0.0,90,12.80,,,99.99,meteohub,2013-04-01 13:19:00,
2013-04-01 09:24:00,48.7,45.7,29.69,NW,310,0.0,0.0,89,12.36,,,99.99,meteohub,2013-04-01 13:24:00,
2013-04-01 09:29:00,48.9,45.9,29.69,NW,310,0.0,0.0,89,12.56,,,99.99,meteohub,2013-04-01 13:29:00,
2013-04-01 09:34:00,49.3,46.2,29.69,NW,310,0.0,0.0,89,13.28,,,99.99,meteohub,2013-04-01 13:34:00,
2013-04-01 09:40:00,49.8,46.8,29.69,NW,310,0.0,0.0,89,13.40,,,99.99,meteohub,2013-04-01 13:40:00,
2013-04-01 09:45:00,50.4,46.4,29.68,NW,310,0.0,0.0,86,13.88,,,99.99,meteohub,2013-04-01 13:45:00,
2013-04-01 09:50:00,50.7,46.8,29.68,NW,310,0.0,0.0,86,13.64,,,99.99,meteohub,2013-04-01 13:50:00,
2013-04-01 09:55:00,51.1,47.3,29.68,NW,310,0.0,0.0,87,13.84,,,99.99,meteohub,2013-04-01 13:55:00,
2013-04-01 10:00:00,51.1,46.4,29.68,NW,310,0.0,0.0,84,13.32,,,99.99,meteohub,2013-04-01 14:00:00,
2013-04-01 10:05:00,51.4,47.5,29.68,NW,310,0.0,0.0,86,13.52,,,99.99,meteohub,2013-04-01 14:05:00,
2013-04-01 10:10:00,51.8,47.1,29.68,NW,310,0.0,0.0,84,13.76,,,99.99,meteohub,2013-04-01 14:10:00,
2013-04-01 10:15:00,52.0,46.6,29.67,NW,310,0.0,0.0,82,13.28,,,99.99,meteohub,2013-04-01 14:15:00,
2013-04-01 10:20:00,52.3,47.3,29.67,NW,310,0.0,0.0,83,13.64,,,99.99,meteohub,2013-04-01 14:20:00,
2013-04-01 10:26:00,52.9,48.6,29.68,NW,310,0.0,0.0,85,14.00,,,99.99,meteohub,2013-04-01 14:26:00,
2013-04-01 10:31:00,53.4,47.7,29.68,NW,310,0.0,0.0,81,13.56,,,99.99,meteohub,2013-04-01 14:31:00,
2013-04-01 10:36:00,54.0,47.7,29.67,NW,310,0.0,0.0,79,13.76,,,99.99,meteohub,2013-04-01 14:36:00,
2013-04-01 10:41:00,54.0,48.2,29.67,NW,310,0.0,0.0,81,12.56,,,99.99,meteohub,2013-04-01 14:41:00,
2013-04-01 10:46:00,53.8,48.4,29.67,NW,310,0.0,0.0,82,13.56,,,99.99,meteohub,2013-04-01 14:46:00,
2013-04-01 10:51:00,53.6,47.7,29.67,NW,310,0.0,0.0,80,13.80,,,99.99,meteohub,2013-04-01 14:51:00,
2013-04-01 10:56:00,53.2,46.9,29.67,NW,310,0.0,0.0,79,13.48,,,99.99,meteohub,2013-04-01 14:56:00,
2013-04-01 11:02:00,53.1,46.8,29.67,NW,310,0.0,0.0,79,13.80,,,99.99,meteohub,2013-04-01 15:02:00,
2013-04-01 11:07:00,53.2,47.3,29.67,NW,310,0.0,0.0,80,13.36,,,99.99,meteohub,2013-04-01 15:07:00,
2013-04-01 11:12:00,53.2,46.6,29.67,NW,310,0.0,0.0,78,13.56,,,99.99,meteohub,2013-04-01 15:12:00,
2013-04-01 11:17:00,53.1,46.4,29.67,NW,310,0.0,0.0,78,13.84,,,99.99,meteohub,2013-04-01 15:17:00,
2013-04-01 11:22:00,53.2,47.5,29.67,NW,310,0.0,0.0,81,13.32,,,99.99,meteohub,2013-04-01 15:22:00,
2013-04-01 11:27:00,53.2,46.2,29.66,NW,310,0.0,0.0,77,13.80,,,99.99,meteohub,2013-04-01 15:27:00,
2013-04-01 11:32:00,53.8,47.1,29.66,NW,310,0.0,0.0,78,13.16,,,99.99,meteohub,2013-04-01 15:32:00,
2013-04-01 11:37:00,54.0,46.9,29.67,NW,310,0.0,0.0,77,13.68,,,99.99,meteohub,2013-04-01 15:37:00,
2013-04-01 11:43:00,54.1,46.8,29.67,NW,310,0.0,0.0,76,13.92,,,99.99,meteohub,2013-04-01 15:43:00,
2013-04-01 11:48:00,54.3,45.9,29.66,NW,310,0.0,0.0,73,13.40,,,99.99,meteohub,2013-04-01 15:48:00,
2013-04-01 11:53:00,54.7,46.9,29.66,NW,310,0.0,0.0,75,13.68,,,99.99,meteohub,2013-04-01 15:53:00,
2013-04-01 11:58:00,54.9,46.8,29.66,NW,310,0.0,0.0,74,13.92,,,99.99,meteohub,2013-04-01 15:58:00,
2013-04-01 12:03:00,55.8,46.9,29.66,NW,310,0.0,0.0,72,13.44,,,99.99,meteohub,2013-04-01 16:03:00,
2013-04-01 12:08:00,56.1,46.4,29.66,NW,310,0.0,0.0,70,13.76,,,99.99,meteohub,2013-04-01 16:08:00,
2013-04-01 12:13:00,56.5,46.8,29.65,NW,310,0.0,0.0,70,13.36,,,99.99,meteohub,2013-04-01 16:13:00,
2013-04-01 12:18:00,56.8,46.8,29.65,NW,310,0.0,0.0,69,13.64,,,99.99,meteohub,2013-04-01 16:18:00,
2013-04-01 12:23:00,57.0,46.6,29.65,NW,310,0.0,0.0,68,13.80,,,99.99,meteohub,2013-04-01 16:23:00,
2013-04-01 12:29:00,57.2,47.5,29.64,NW,310,0.0,0.0,70,13.32,,,99.99,meteohub,2013-04-01 16:29:00,
2013-04-01 12:34:00,57.0,46.9,29.64,NW,310,0.0,0.0,69,13.76,,,99.99,meteohub,2013-04-01 16:34:00,
2013-04-01 12:39:00,57.0,46.9,29.65,NW,310,0.0,0.0,69,13.40,,,99.99,meteohub,2013-04-01 16:39:00,
2013-04-01 12:44:00,57.4,46.9,29.64,NW,310,0.0,0.0,68,13.64,,,99.99,meteohub,2013-04-01 16:44:00,
2013-04-01 12:49:00,57.7,48.0,29.64,NW,310,0.0,0.0,70,13.96,,,99.99,meteohub,2013-04-01 16:49:00,
2013-04-01 12:54:00,57.9,48.9,29.64,NW,310,0.0,0.0,72,13.48,,,99.99,meteohub,2013-04-01 16:54:00,
2013-04-01 12:59:00,57.7,48.0,29.64,NW,310,0.0,0.0,70,13.56,,,99.99,meteohub,2013-04-01 16:59:00,
2013-04-01 13:04:00,57.6,48.2,29.64,NW,310,0.0,0.0,71,13.80,,,99.99,meteohub,2013-04-01 17:04:00,
2013-04-01 13:09:00,57.2,48.2,29.63,NW,310,0.0,0.0,72,13.40,,,99.99,meteohub,2013-04-01 17:09:00,
2013-04-01 13:14:00,57.4,48.4,29.63,NW,310,0.0,0.0,72,13.60,,,99.99,meteohub,2013-04-01 17:14:00,
2013-04-01 13:19:00,57.4,47.7,29.63,NW,310,0.0,0.0,70,13.96,,,99.99,meteohub,2013-04-01 17:19:00,
2013-04-01 13:24:00,57.4,47.7,29.63,NW,310,0.0,0.0,70,13.56,,,99.99,meteohub,2013-04-01 17:24:00,
2013-04-01 13:29:00,57.6,47.8,29.63,NW,310,0.0,0.0,70,13.80,,,99.99,meteohub,2013-04-01 17:29:00,
2013-04-01 13:34:00,57.9,48.6,29.63,NW,310,0.0,0.0,71,13.44,,,99.99,meteohub,2013-04-01 17:34:00,
2013-04-01 13:39:00,58.1,48.4,29.63,NW,310,0.0,0.0,70,13.56,,,99.99,meteohub,2013-04-01 17:39:00,
2013-04-01 13:45:00,58.8,48.2,29.63,NW,310,0.0,0.0,68,13.84,,,99.99,meteohub,2013-04-01 17:45:00,
2013-04-01 13:50:00,58.8,49.1,29.62,NW,310,0.0,0.0,70,13.36,,,99.99,meteohub,2013-04-01 17:50:00,
2013-04-01 13:55:00,58.8,48.7,29.61,NW,310,0.0,0.0,69,14.00,,,99.99,meteohub,2013-04-01 17:55:00,
2013-04-01 14:00:00,58.6,47.7,29.61,NW,310,0.0,0.0,67,13.44,,,99.99,meteohub,2013-04-01 18:00:00,
2013-04-01 14:05:00,58.6,48.2,29.61,NW,310,0.0,0.0,68,13.84,,,99.99,meteohub,2013-04-01 18:05:00,
2013-04-01 14:10:00,58.6,47.3,29.61,NW,310,0.0,0.0,66,13.36,,,99.99,meteohub,2013-04-01 18:10:00,
2013-04-01 14:15:00,58.6,47.3,29.61,NW,310,0.0,0.0,66,13.52,,,99.99,meteohub,2013-04-01 18:15:00,
2013-04-01 14:20:00,58.5,46.8,29.60,NW,310,0.0,0.0,65,13.76,,,99.99,meteohub,2013-04-01 18:20:00,
2013-04-01 14:25:00,58.6,47.3,29.60,NW,310,0.0,0.0,66,13.44,,,99.99,meteohub,2013-04-01 18:25:00,
2013-04-01 14:30:00,59.2,48.6,29.60,NW,310,0.0,0.0,68,13.68,,,99.99,meteohub,2013-04-01 18:30:00,
2013-04-01 14:36:00,59.5,46.9,29.60,NW,310,0.0,0.0,63,13.24,,,99.99,meteohub,2013-04-01 18:36:00,
2013-04-01 14:41:00,59.2,46.9,29.60,NW,310,0.0,0.0,64,13.60,,,99.99,meteohub,2013-04-01 18:41:00,
2013-04-01 14:46:00,59.2,46.9,29.60,NW,310,0.0,0.0,64,14.00,,,99.99,meteohub,2013-04-01 18:46:00,
2013-04-01 14:51:00,59.2,47.5,29.60,NW,310,0.0,0.0,65,13.52,,,99.99,meteohub,2013-04-01 18:51:00,
2013-04-01 14:56:00,59.4,48.0,29.59,NW,310,0.0,0.0,66,13.84,,,99.99,meteohub,2013-04-01 18:56:00,
2013-04-01 15:02:00,59.7,47.5,29.59,NW,310,0.0,0.0,64,13.36,,,99.99,meteohub,2013-04-01 19:02:00,
2013-04-01 15:07:00,59.7,48.7,29.59,NW,310,0.0,0.0,67,13.68,,,99.99,meteohub,2013-04-01 19:07:00,
2013-04-01 15:12:00,59.4,46.8,29.59,NW,310,0.0,0.0,63,13.88,,,99.99,meteohub,2013-04-01 19:12:00,
2013-04-01 15:17:00,58.8,46.2,29.59,NW,310,0.0,0.0,63,13.36,,,99.99,meteohub,2013-04-01 19:17:00,
2013-04-01 15:22:00,57.9,45.3,29.60,NW,310,0.0,0.0,63,13.84,,,99.99,meteohub,2013-04-01 19:22:00,
2013-04-01 15:27:00,56.5,46.8,29.61,NW,310,0.0,0.0,70,13.36,,,99.99,meteohub,2013-04-01 19:27:00,
2013-04-01 15:32:00,54.7,47.7,29.63,NW,310,0.0,0.0,77,13.18,,,99.99,meteohub,2013-04-01 19:32:00,
2013-04-01 15:37:00,52.9,47.5,29.63,NW,310,0.0,0.0,82,11.94,,,99.99,meteohub,2013-04-01 19:37:00,
2013-04-01 15:42:00,51.6,46.9,29.62,NW,310,0.0,0.0,84,10.82,,,99.99,meteohub,2013-04-01 19:42:00,
2013-04-01 15:47:00,50.9,47.1,29.62,NW,310,0.0,0.0,87,9.62,,,99.99,meteohub,2013-04-01 19:47:00,
2013-04-01 15:52:00,50.9,48.0,29.62,NW,310,0.0,0.0,90,8.50,,,99.99,meteohub,2013-04-01 19:52:00,
2013-04-01 15:57:00,51.4,48.9,29.61,NW,310,0.0,0.0,91,7.30,,,99.99,meteohub,2013-04-01 19:57:00,
2013-04-01 16:02:00,52.2,49.3,29.61,NW,310,0.0,0.0,90,7.32,,,99.99,meteohub,2013-04-01 20:02:00,
2013-04-01 16:08:00,52.5,48.2,29.61,NW,310,0.0,0.0,85,6.92,,,99.99,meteohub,2013-04-01 20:08:00,
2013-04-01 16:13:00,53.2,48.6,29.61,NW,310,0.0,0.0,84,7.12,,,99.99,meteohub,2013-04-01 20:13:00,
2013-04-01 16:18:00,53.4,48.4,29.61,NW,310,0.0,0.0,83,7.40,,,99.99,meteohub,2013-04-01 20:18:00,
2013-04-01 16:23:00,54.0,48.2,29.62,NW,310,0.0,0.0,81,6.92,,,99.99,meteohub,2013-04-01 20:23:00,
2013-04-01 16:28:00,54.1,47.1,29.62,NW,310,0.0,0.0,77,7.20,,,99.99,meteohub,2013-04-01 20:28:00,
2013-04-01 16:33:00,54.0,45.1,29.62,NW,310,0.0,0.0,72,7.70,,,99.99,meteohub,2013-04-01 20:33:00,
2013-04-01 16:38:00,53.4,44.6,29.63,NW,310,0.0,0.0,72,9.06,,,99.99,meteohub,2013-04-01 20:38:00,
2013-04-01 16:43:00,53.1,44.2,29.63,NW,310,0.0,0.0,72,10.50,,,99.99,meteohub,2013-04-01 20:43:00,
2013-04-01 16:48:00,52.5,43.3,29.64,NW,310,0.0,0.0,71,11.22,,,99.99,meteohub,2013-04-01 20:48:00,
2013-04-01 16:53:00,52.2,43.3,29.64,NW,310,0.0,0.0,72,12.82,,,99.99,meteohub,2013-04-01 20:53:00,
2013-04-01 16:58:00,51.6,42.4,29.64,NW,310,0.0,0.0,71,13.44,,,99.99,meteohub,2013-04-01 20:58:00,
2013-04-01 17:03:00,51.1,42.1,29.65,NW,310,0.0,0.0,71,13.64,,,99.99,meteohub,2013-04-01 21:03:00,
2013-04-01 17:09:00,50.5,41.9,29.65,NW,310,0.0,0.0,72,13.76,,,99.99,meteohub,2013-04-01 21:09:00,
2013-04-01 17:14:00,50.4,39.4,29.65,NW,310,0.0,0.0,66,13.28,,,99.99,meteohub,2013-04-01 21:14:00,
2013-04-01 17:19:00,49.8,39.4,29.66,NW,310,0.0,0.0,67,13.84,,,99.99,meteohub,2013-04-01 21:19:00,
2013-04-01 17:24:00,49.6,40.3,29.67,NW,310,0.0,0.0,70,13.28,,,99.99,meteohub,2013-04-01 21:24:00,
2013-04-01 17:29:00,48.7,39.4,29.67,NW,310,0.0,0.0,70,13.72,,,99.99,meteohub,2013-04-01 21:29:00,
2013-04-01 17:34:00,47.5,38.8,29.68,NW,310,0.0,0.0,72,13.96,,,99.99,meteohub,2013-04-01 21:34:00,
2013-04-01 17:39:00,46.4,38.3,29.69,NW,310,0.0,0.0,73,13.32,,,99.99,meteohub,2013-04-01 21:39:00,
2013-04-01 17:44:00,45.9,38.3,29.69,NW,310,0.0,0.0,75,13.64,,,99.99,meteohub,2013-04-01 21:44:00,
2013-04-01 17:50:00,45.3,38.1,29.69,NW,310,0.0,0.0,76,13.52,,,99.99,meteohub,2013-04-01 21:50:00,
2013-04-01 17:55:00,45.0,38.8,29.69,NW,310,0.0,0.0,79,13.68,,,99.99,meteohub,2013-04-01 21:55:00,
2013-04-01 18:00:00,44.2,38.1,29.69,NW,310,0.0,0.0,79,13.32,,,99.99,meteohub,2013-04-01 22:00:00,
2013-04-01 18:05:00,43.5,37.8,29.69,NW,310,0.0,0.0,80,13.60,,,99.99,meteohub,2013-04-01 22:05:00,
2013-04-01 18:10:00,43.3,37.6,29.70,NW,310,0.0,0.0,80,13.88,,,99.99,meteohub,2013-04-01 22:10:00,
2013-04-01 18:15:00,43.2,37.0,29.70,NW,310,0.0,0.0,79,13.24,,,99.99,meteohub,2013-04-01 22:15:00,
2013-04-01 18:20:00,43.0,37.2,29.71,NW,310,0.0,0.0,80,13.60,,,99.99,meteohub,2013-04-01 22:20:00,
2013-04-01 18:25:00,43.0,36.9,29.71,NW,310,0.0,0.0,79,13.84,,,99.99,meteohub,2013-04-01 22:25:00,
2013-04-01 18:30:00,43.0,36.9,29.71,NW,310,0.0,0.0,79,13.52,,,99.99,meteohub,2013-04-01 22:30:00,
2013-04-01 18:35:00,42.6,36.5,29.71,NW,310,0.0,0.0,79,13.80,,,99.99,meteohub,2013-04-01 22:35:00,
2013-04-01 18:40:00,42.6,36.5,29.72,NW,310,0.0,0.0,79,13.32,,,99.99,meteohub,2013-04-01 22:40:00,
2013-04-01 18:45:00,42.4,36.3,29.72,NW,310,0.0,0.0,79,13.56,,,99.99,meteohub,2013-04-01 22:45:00,
2013-04-01 18:50:00,42.4,36.1,29.72,NW,310,0.0,0.0,78,13.88,,,99.99,meteohub,2013-04-01 22:50:00,
2013-04-01 18:56:00,42.3,35.6,29.72,NW,310,0.0,0.0,77,13.32,,,99.99,meteohub,2013-04-01 22:56:00,
2013-04-01 19:01:00,42.3,35.2,29.72,NW,310,0.0,0.0,76,13.76,,,99.99,meteohub,2013-04-01 23:01:00,
2013-04-01 19:06:00,41.9,34.5,29.72,NW,310,0.0,0.0,75,13.32,,,99.99,meteohub,2013-04-01 23:06:00,
2013-04-01 19:11:00,41.7,34.3,29.73,NW,310,0.0,0.0,75,13.64,,,99.99,meteohub,2013-04-01 23:11:00,
2013-04-01 19:16:00,41.5,34.2,29.74,NW,310,0.0,0.0,75,13.92,,,99.99,meteohub,2013-04-01 23:16:00,
2013-04-01 19:21:00,41.4,34.0,29.74,NW,310,0.0,0.0,75,13.36,,,99.99,meteohub,2013-04-01 23:21:00,
2013-04-01 19:26:00,41.2,33.8,29.74,NW,310,0.0,0.0,75,13.64,,,99.99,meteohub,2013-04-01 23:26:00,
2013-04-01 19:31:00,41.2,33.8,29.75,NW,310,0.0,0.0,75,13.92,,,99.99,meteohub,2013-04-01 23:31:00,
2013-04-01 19:36:00,41.0,33.6,29.75,NW,310,0.0,0.0,75,13.44,,,99.99,meteohub,2013-04-01 23:36:00,
2013-04-01 19:42:00,40.8,33.4,29.75,NW,310,0.0,0.0,75,13.92,,,99.99,meteohub,2013-04-01 23:42:00,
2013-04-01 19:47:00,40.6,33.3,29.75,NW,310,0.0,0.0,75,13.40,,,99.99,meteohub,2013-04-01 23:47:00,
2013-04-01 19:52:00,40.5,33.1,29.76,NW,310,0.0,0.0,75,13.52,,,99.99,meteohub,2013-04-01 23:52:00,
2013-04-01 19:57:00,40.3,33.1,29.76,NW,310,0.0,0.0,75,13.12,,,99.99,meteohub,2013-04-01 23:57:00,
2013-04-01 20:02:00,40.1,33.1,29.77,NW,310,0.0,0.0,76,13.60,,,99.99,meteohub,2013-04-02 00:02:00,
2013-04-01 20:07:00,39.9,32.9,29.77,NW,310,0.0,0.0,76,13.76,,,1.00,meteohub,2013-04-02 00:07:00,
2013-04-01 20:12:00,39.6,32.9,29.77,NW,310,0.0,0.0,77,13.48,,,1.84,meteohub,2013-04-02 00:12:00,
2013-04-01 20:17:00,39.4,32.7,29.77,NW,310,0.0,0.0,77,13.64,,,3.20,meteohub,2013-04-02 00:17:00,
2013-04-01 20:22:00,39.0,32.7,29.77,NW,310,0.0,0.0,78,13.84,,,4.64,meteohub,2013-04-02 00:22:00,
2013-04-01 20:27:00,38.8,32.5,29.77,NW,310,0.0,0.0,78,13.48,,,5.36,meteohub,2013-04-02 00:27:00,
2013-04-01 20:32:00,38.7,32.7,29.77,NW,310,0.0,0.0,79,13.72,,,6.84,meteohub,2013-04-02 00:32:00,
2013-04-01 20:37:00,38.5,32.5,29.77,NW,310,0.0,0.0,79,13.24,,,7.56,meteohub,2013-04-02 00:37:00,
2013-04-01 20:42:00,38.3,32.4,29.78,NW,310,0.0,0.0,79,13.64,,,9.04,meteohub,2013-04-02 00:42:00,
2013-04-01 20:47:00,38.1,31.8,29.78,NW,310,0.0,0.0,78,13.76,,,10.36,meteohub,2013-04-02 00:47:00,
2013-04-01 20:52:00,38.1,31.6,29.78,NW,310,0.0,0.0,77,13.32,,,11.12,meteohub,2013-04-02 00:52:00,
2013-04-01 20:57:00,38.1,31.6,29.78,NW,310,0.0,0.0,77,13.76,,,12.68,meteohub,2013-04-02 00:57:00,
2013-04-01 21:03:00,38.1,30.9,29.79,NW,310,0.0,0.0,75,13.88,,,13.40,meteohub,2013-04-02 01:03:00,
2013-04-01 21:08:00,38.1,30.6,29.79,NW,310,0.0,0.0,74,13.64,,,14.88,meteohub,2013-04-02 01:08:00,
2013-04-01 21:13:00,38.1,30.6,29.80,NW,310,0.0,0.0,74,13.84,,,16.32,meteohub,2013-04-02 01:13:00,
2013-04-01 21:18:00,38.1,29.1,29.80,NW,310,0.0,0.0,70,13.28,,,16.96,meteohub,2013-04-02 01:18:00,
2013-04-01 21:23:00,38.3,28.2,29.81,NW,310,0.0,0.0,67,13.76,,,18.52,meteohub,2013-04-02 01:23:00,
2013-04-01 21:28:00,38.5,27.3,29.81,NW,310,0.0,0.0,64,13.20,,,19.16,meteohub,2013-04-02 01:28:00,
2013-04-01 21:33:00,38.5,25.9,29.81,NW,310,0.0,0.0,60,13.40,,,20.60,meteohub,2013-04-02 01:33:00,
2013-04-01 21:38:00,38.7,25.2,29.82,NW,310,0.0,0.0,58,13.92,,,22.20,meteohub,2013-04-02 01:38:00,
2013-04-01 21:43:00,38.7,24.3,29.82,NW,310,0.0,0.0,56,13.40,,,22.92,meteohub,2013-04-02 01:43:00,
2013-04-01 21:48:00,38.5,23.4,29.82,NW,310,0.0,0.0,54,13.68,,,24.32,meteohub,2013-04-02 01:48:00,
2013-04-01 21:54:00,38.3,22.6,29.82,NW,310,0.0,0.0,53,14.08,,,25.80,meteohub,2013-04-02 01:54:00,
2013-04-01 21:59:00,38.3,22.3,29.83,NW,310,0.0,0.0,52,13.36,,,26.40,meteohub,2013-04-02 01:59:00,
2013-04-01 22:04:00,38.1,22.1,29.83,NW,310,0.0,0.0,52,13.88,,,28.00,meteohub,2013-04-02 02:04:00,
2013-04-01 22:09:00,37.9,21.9,29.83,NW,310,0.0,0.0,52,13.36,,,28.72,meteohub,2013-04-02 02:09:00,
2013-04-01 22:14:00,37.9,20.5,29.83,NW,310,0.0,0.0,49,13.60,,,30.04,meteohub,2013-04-02 02:14:00,
2013-04-01 22:19:00,37.9,20.5,29.84,NW,310,0.0,0.0,49,13.84,,,31.52,meteohub,2013-04-02 02:19:00,
2013-04-01 22:24:00,37.8,20.3,29.84,NW,310,0.0,0.0,49,13.44,,,32.24,meteohub,2013-04-02 02:24:00,
2013-04-01 22:29:00,37.6,20.1,29.84,NW,310,0.0,0.0,49,13.68,,,33.68,meteohub,2013-04-02 02:29:00,
2013-04-01 22:35:00,37.4,19.9,29.84,NW,310,0.0,0.0,49,13.44,,,35.76,meteohub,2013-04-02 02:35:00,
2013-04-01 22:40:00,37.0,20.1,29.84,NW,310,0.0,0.0,50,12.56,,,36.12,meteohub,2013-04-02 02:40:00,
2013-04-01 22:45:00,37.0,20.1,29.85,NW,310,0.0,0.0,50,12.28,,,36.84,meteohub,2013-04-02 02:45:00,
2013-04-01 22:50:00,36.9,20.5,29.85,NW,310,0.0,0.0,51,12.28,,,38.20,meteohub,2013-04-02 02:50:00,
2013-04-01 22:55:00,36.7,19.4,29.85,NW,310,0.0,0.0,49,11.88,,,38.92,meteohub,2013-04-02 02:55:00,
2013-04-01 23:00:00,36.7,19.4,29.85,NW,310,0.0,0.0,49,12.24,,,40.48,meteohub,2013-04-02 03:00:00,
2013-04-01 23:06:00,36.5,18.7,29.85,NW,310,0.0,0.0,48,12.52,,,41.96,meteohub,2013-04-02 03:06:00,
2013-04-01 23:11:00,36.3,19.0,29.85,NW,310,0.0,0.0,49,12.16,,,42.68,meteohub,2013-04-02 03:11:00,
2013-04-01 23:16:00,36.3,19.4,29.85,NW,310,0.0,0.0,50,12.36,,,44.12,meteohub,2013-04-02 03:16:00,
2013-04-01 23:21:00,36.0,19.0,29.85,NW,310,0.0,0.0,50,12.52,,,45.48,meteohub,2013-04-02 03:21:00,
2013-04-01 23:26:00,35.8,19.4,29.86,NW,310,0.0,0.0,51,12.20,,,46.24,meteohub,2013-04-02 03:26:00,
2013-04-01 23:32:00,35.6,19.2,29.86,NW,310,0.0,0.0,51,12.52,,,47.80,meteohub,2013-04-02 03:32:00,
2013-04-01 23:37:00,35.4,19.0,29.86,NW,310,0.0,0.0,51,12.80,,,48.56,meteohub,2013-04-02 03:37:00,
2013-04-01 23:42:00,35.4,19.0,29.86,NW,310,0.0,0.0,51,13.52,,,49.88,meteohub,2013-04-02 03:42:00,
2013-04-01 23:47:00,35.4,18.7,29.86,NW,310,0.0,0.0,50,13.96,,,51.40,meteohub,2013-04-02 03:47:00,
2013-04-01 23:52:00,35.4,19.0,29.86,NW,310,0.0,0.0,51,13.40,,,52.08,meteohub,2013-04-02 03:52:00,
2013-04-01 23:57:00,35.2,18.9,29.87,NW,310,0.0,0.0,51,13.76,,,53.52,meteohub,2013-04-02 03:57:00,